Time;durP1;ratioP1;P1;durP2;ratioP2;P2;SDS_P1;SDS_P2;PMS_P1;PMS_P2;Temp;Humidity;BMP_temperature;BMP_pressure;BME280_temperature;BME280_humidity;BME280_pressure;Samples;Min_cycle;Max_cycle;Signal;HPM_P1;HPM_P2
2022/12/07 00:01:31;;;;;;;11.87;9.07;;;2.20;99.90;;;;;;5072969;28;20231;-75
2022/12/07 00:04:04;;;;;;;11.30;10.07;;;2.20;99.90;;;;;;5072848;28;20192;-78
2022/12/07 00:06:34;;;;;;;11.33;9.30;;;2.20;99.90;;;;;;5073127;28;20192;-80
2022/12/07 00:09:04;;;;;;;14.10;9.67;;;2.10;99.90;;;;;;5074045;28;20208;-78
2022/12/07 00:11:32;;;;;;;10.90;9.77;;;2.20;99.90;;;;;;5071943;28;20217;-78
2022/12/07 00:14:02;;;;;;;12.13;10.33;;;2.20;99.90;;;;;;5073000;28;20211;-79
2022/12/07 00:16:32;;;;;;;11.33;9.63;;;2.20;99.90;;;;;;5073976;28;20210;-79
2022/12/07 00:19:02;;;;;;;10.63;9.50;;;2.20;99.90;;;;;;5073304;28;20238;-79
2022/12/07 00:21:32;;;;;;;10.33;9.20;;;2.20;99.90;;;;;;5091031;28;20207;-79
2022/12/07 00:24:02;;;;;;;11.43;9.83;;;2.20;99.90;;;;;;5092900;28;20203;-80
2022/12/07 00:26:32;;;;;;;12.20;9.73;;;2.10;99.90;;;;;;5082760;28;20230;-78
2022/12/07 00:29:02;;;;;;;11.07;9.23;;;2.10;99.90;;;;;;5072164;28;20203;-78
2022/12/07 00:31:33;;;;;;;11.30;10.10;;;2.10;99.90;;;;;;5072493;28;20219;-79
2022/12/07 00:34:03;;;;;;;11.73;9.90;;;2.10;99.90;;;;;;5073733;28;20228;-78
2022/12/07 00:36:31;;;;;;;10.53;9.37;;;2.10;99.90;;;;;;5092964;28;20207;-77
2022/12/07 00:39:00;;;;;;;12.47;9.90;;;2.10;99.90;;;;;;5092425;28;20600;-80
2022/12/07 00:41:29;;;;;;;11.60;9.87;;;2.10;99.90;;;;;;5092459;28;20215;-80
2022/12/07 00:43:57;;;;;;;11.63;9.37;;;2.10;99.90;;;;;;5072458;28;20215;-79
2022/12/07 00:46:26;;;;;;;10.90;9.80;;;2.20;99.90;;;;;;5072093;28;20294;-77
2022/12/07 00:48:55;;;;;;;11.03;9.33;;;2.20;99.90;;;;;;5072378;28;20282;-78
2022/12/07 00:51:25;;;;;;;13.00;9.60;;;2.20;99.90;;;;;;5071872;28;20235;-79
2022/12/07 00:53:54;;;;;;;11.73;10.10;;;2.20;99.90;;;;;;5072464;28;20218;-74
2022/12/07 00:56:23;;;;;;;11.30;9.47;;;2.20;99.90;;;;;;5072296;28;20214;-78
2022/12/07 00:58:53;;;;;;;11.23;9.43;;;2.10;99.90;;;;;;5071758;28;20700;-78
2022/12/07 01:01:21;;;;;;;11.30;9.87;;;2.10;99.90;;;;;;5090318;28;20590;-77
2022/12/07 01:03:50;;;;;;;12.13;9.40;;;2.10;99.90;;;;;;5092326;28;20198;-79
2022/12/07 01:06:19;;;;;;;10.90;9.63;;;2.10;99.90;;;;;;5092900;28;20215;-80
2022/12/07 01:08:49;;;;;;;11.20;9.80;;;2.10;99.90;;;;;;5092112;28;20218;-75
2022/12/07 01:11:20;;;;;;;12.03;10.10;;;2.10;99.90;;;;;;5072671;28;20204;-79
2022/12/07 01:13:51;;;;;;;11.83;10.17;;;2.00;99.90;;;;;;5072755;28;20215;-74
2022/12/07 01:16:21;;;;;;;17.27;11.13;;;2.00;99.90;;;;;;5073774;28;20192;-77
2022/12/07 01:18:52;;;;;;;11.90;10.40;;;2.00;99.90;;;;;;5077287;28;20207;-74
2022/12/07 01:21:22;;;;;;;11.87;9.90;;;2.00;99.90;;;;;;5093449;28;20204;-75
2022/12/07 01:23:52;;;;;;;12.43;10.40;;;2.00;99.90;;;;;;5098752;28;20215;-76
2022/12/07 01:26:23;;;;;;;12.20;10.63;;;2.00;99.90;;;;;;5099786;28;22099;-74
2022/12/07 01:28:51;;;;;;;12.13;10.40;;;2.00;99.90;;;;;;5105510;28;20641;-74
2022/12/07 01:31:21;;;;;;;11.40;9.90;;;2.00;99.90;;;;;;5105848;28;20664;-79
2022/12/07 01:33:51;;;;;;;15.33;10.67;;;2.00;99.90;;;;;;5098612;28;20660;-79
2022/12/07 01:36:22;;;;;;;11.83;9.63;;;2.00;99.90;;;;;;5079141;28;20211;-78
2022/12/07 01:38:56;;;;;;;12.07;10.10;;;1.90;99.90;;;;;;5075581;28;20196;-79
2022/12/07 01:41:25;;;;;;;12.40;10.30;;;2.00;99.90;;;;;;5075789;28;20225;-78
2022/12/07 01:44:18;;;;;;;12.13;10.63;;;2.00;99.90;;;;;;5084982;28;20657;-79
2022/12/07 01:46:47;;;;;;;12.57;10.13;;;2.00;99.90;;;;;;5096835;28;20190;-79
2022/12/07 01:49:22;;;;;;;12.30;10.57;;;2.00;99.90;;;;;;5093988;28;20568;-79
2022/12/07 01:51:51;;;;;;;13.43;10.60;;;1.90;99.90;;;;;;5095648;28;20202;-78
2022/12/07 01:54:22;;;;;;;13.23;10.93;;;1.90;99.90;;;;;;5094301;28;20672;-75
2022/12/07 01:56:53;;;;;;;12.13;10.40;;;1.90;99.90;;;;;;5095575;28;20191;-78
2022/12/07 01:59:26;;;;;;;12.33;10.40;;;1.90;99.90;;;;;;5095484;28;20187;-79
2022/12/07 02:01:55;;;;;;;11.87;10.13;;;1.90;99.90;;;;;;5094159;28;20692;-78
2022/12/07 02:04:25;;;;;;;12.97;10.50;;;1.90;99.90;;;;;;5081746;28;20334;-78
2022/12/07 02:06:54;;;;;;;12.00;10.00;;;1.90;99.90;;;;;;5074617;28;20212;-79
2022/12/07 02:09:23;;;;;;;13.73;10.47;;;1.90;99.90;;;;;;5075122;28;20213;-80
2022/12/07 02:11:52;;;;;;;13.03;11.33;;;1.90;99.90;;;;;;5074433;28;20214;-77
2022/12/07 02:14:20;;;;;;;13.20;11.27;;;1.90;99.90;;;;;;5089230;28;20446;-78
2022/12/07 02:16:59;;;;;;;12.93;11.33;;;1.80;99.90;;;;;;5095241;28;20214;-80
2022/12/07 02:20:03;;;;;;;11.70;10.50;;;1.90;99.90;;;;;;5095090;28;20637;-79
2022/12/07 02:23:08;;;;;;;11.90;10.33;;;1.90;99.90;;;;;;5075054;28;20633;-78
2022/12/07 02:25:59;;;;;;;11.37;10.13;;;1.80;99.90;;;;;;5068058;28;20211;-79
2022/12/07 02:28:32;;;;;;;13.93;10.33;;;1.80;99.90;;;;;;5074387;28;20219;-79
2022/12/07 02:31:07;;;;;;;12.90;11.13;;;1.80;99.90;;;;;;5074614;28;20187;-79
2022/12/07 02:33:41;;;;;;;11.47;10.27;;;1.80;99.90;;;;;;5074805;28;20203;-80
2022/12/07 02:36:15;;;;;;;12.03;10.70;;;1.80;99.90;;;;;;5074266;28;20195;-80
2022/12/07 02:38:49;;;;;;;13.70;11.20;;;1.80;99.90;;;;;;5074690;28;20597;-79
2022/12/07 02:41:22;;;;;;;12.87;11.17;;;1.80;99.90;;;;;;5074428;28;20223;-80
2022/12/07 02:43:55;;;;;;;12.80;10.87;;;1.80;99.90;;;;;;5085056;28;20590;-78
2022/12/07 02:46:29;;;;;;;12.30;11.00;;;1.70;99.90;;;;;;5094180;28;20656;-79
2022/12/07 02:48:59;;;;;;;12.20;10.87;;;1.80;99.90;;;;;;5082955;28;20203;-80
2022/12/07 02:51:30;;;;;;;12.67;10.67;;;1.80;99.90;;;;;;5074231;28;20211;-79
2022/12/07 02:53:58;;;;;;;13.90;11.23;;;1.80;99.90;;;;;;5074065;28;20210;-80
2022/12/07 02:56:36;;;;;;;14.07;11.27;;;1.80;99.90;;;;;;5076433;28;20203;-78
2022/12/07 02:59:18;;;;;;;12.77;10.90;;;1.80;99.90;;;;;;5074396;28;20207;-79
2022/12/07 03:01:58;;;;;;;13.40;11.27;;;1.80;99.90;;;;;;5073634;28;20239;-79
2022/12/07 03:04:40;;;;;;;13.20;11.33;;;1.80;99.90;;;;;;5073508;28;20191;-77
2022/12/07 03:07:19;;;;;;;14.63;11.20;;;1.70;99.90;;;;;;5055860;28;20561;-79
2022/12/07 03:09:56;;;;;;;12.43;10.90;;;1.70;99.90;;;;;;5093557;28;20214;-79
2022/12/07 03:12:32;;;;;;;12.40;10.93;;;1.80;99.90;;;;;;5093250;28;20191;-80
2022/12/07 03:15:06;;;;;;;11.90;10.47;;;1.80;99.90;;;;;;5094089;28;20205;-79
2022/12/07 03:17:40;;;;;;;13.07;10.83;;;1.80;99.90;;;;;;5093528;28;20676;-79
2022/12/07 03:20:16;;;;;;;13.03;11.53;;;1.80;99.90;;;;;;5093867;28;20234;-80
2022/12/07 03:22:48;;;;;;;12.13;10.83;;;1.80;99.90;;;;;;5078803;28;20215;-80
2022/12/07 03:25:17;;;;;;;14.30;11.13;;;1.80;99.90;;;;;;5073747;28;20202;-78
2022/12/07 03:27:51;;;;;;;12.63;10.83;;;1.80;99.90;;;;;;5073684;28;20214;-79
2022/12/07 03:30:25;;;;;;;12.33;10.97;;;1.80;99.90;;;;;;5076118;28;20206;-79
2022/12/07 03:32:58;;;;;;;12.70;10.73;;;1.80;99.90;;;;;;5093087;28;20211;-78
2022/12/07 03:35:29;;;;;;;12.27;10.43;;;1.80;99.90;;;;;;5093579;28;20202;-79
2022/12/07 03:38:01;;;;;;;12.80;11.20;;;1.80;99.90;;;;;;5092909;28;20207;-78
2022/12/07 03:40:34;;;;;;;12.43;10.37;;;1.80;99.90;;;;;;5091648;28;20230;-78
2022/12/07 03:43:03;;;;;;;12.90;11.03;;;1.80;99.90;;;;;;5093204;28;20253;-76
2022/12/07 03:45:38;;;;;;;14.30;11.20;;;1.80;99.90;;;;;;5092907;28;20557;-79
2022/12/07 03:48:17;;;;;;;12.63;11.07;;;1.80;99.90;;;;;;5081374;28;20211;-80
2022/12/07 03:50:53;;;;;;;13.20;10.87;;;1.80;99.90;;;;;;5082995;28;20199;-78
2022/12/07 03:53:26;;;;;;;12.97;10.70;;;1.80;99.90;;;;;;5092375;28;20214;-78
2022/12/07 03:55:56;;;;;;;12.03;10.73;;;1.80;99.90;;;;;;5093427;28;20199;-76
2022/12/07 03:58:25;;;;;;;12.80;11.10;;;1.80;99.90;;;;;;5089866;28;20211;-79
2022/12/07 04:00:56;;;;;;;13.07;11.20;;;1.80;99.90;;;;;;5072992;28;20236;-79
2022/12/07 04:03:26;;;;;;;13.17;11.37;;;1.80;99.90;;;;;;5072789;28;20208;-78
2022/12/07 04:05:54;;;;;;;13.07;11.20;;;1.80;99.90;;;;;;5073201;28;20642;-79
2022/12/07 04:08:22;;;;;;;12.53;11.23;;;1.80;99.90;;;;;;5073240;28;20658;-76
2022/12/07 04:10:50;;;;;;;12.73;11.17;;;1.80;99.90;;;;;;5073299;28;20199;-78
2022/12/07 04:13:19;;;;;;;13.13;10.93;;;1.80;99.90;;;;;;5073236;28;20238;-74
2022/12/07 04:15:47;;;;;;;12.23;10.23;;;1.80;99.90;;;;;;5073322;28;20677;-77
2022/12/07 04:18:15;;;;;;;13.77;11.20;;;1.80;99.90;;;;;;5089530;28;20207;-80
2022/12/07 04:20:44;;;;;;;14.20;11.37;;;1.80;99.90;;;;;;5092971;28;20222;-80
2022/12/07 04:23:12;;;;;;;13.03;11.23;;;1.80;99.90;;;;;;5092835;28;20214;-78
2022/12/07 04:25:41;;;;;;;14.87;12.17;;;1.70;99.90;;;;;;5092467;28;20260;-80
2022/12/07 04:28:09;;;;;;;14.63;12.00;;;1.80;99.90;;;;;;5092933;28;20210;-80
2022/12/07 04:30:37;;;;;;;12.40;11.10;;;1.90;99.90;;;;;;5092937;28;20547;-80
2022/12/07 04:33:05;;;;;;;13.60;11.60;;;1.80;99.90;;;;;;5091938;28;20210;-79
2022/12/07 04:35:33;;;;;;;14.13;12.03;;;1.70;99.90;;;;;;5092842;28;20210;-78
2022/12/07 04:38:03;;;;;;;14.27;11.80;;;1.80;99.90;;;;;;5092393;28;20218;-79
2022/12/07 04:40:31;;;;;;;14.73;11.73;;;1.80;99.90;;;;;;5092057;28;20370;-80
2022/12/07 04:42:59;;;;;;;13.57;11.73;;;1.80;99.90;;;;;;5092189;28;20214;-80
2022/12/07 04:45:27;;;;;;;15.80;11.47;;;1.80;99.90;;;;;;5092278;28;20213;-80
2022/12/07 04:47:55;;;;;;;13.40;11.93;;;1.90;99.90;;;;;;5092864;28;20206;-81
2022/12/07 04:50:23;;;;;;;13.90;11.47;;;1.80;99.90;;;;;;5089429;28;20203;-79
2022/12/07 04:52:51;;;;;;;14.03;12.37;;;1.80;99.90;;;;;;5092147;28;20331;-78
2022/12/07 04:55:20;;;;;;;14.13;12.20;;;1.80;99.90;;;;;;5092828;28;20207;-80
2022/12/07 04:57:48;;;;;;;14.43;12.50;;;1.80;99.90;;;;;;5092394;28;20301;-76
2022/12/07 05:00:17;;;;;;;13.17;11.70;;;1.80;99.90;;;;;;5092156;28;20214;-76
2022/12/07 05:02:45;;;;;;;14.63;12.30;;;1.80;99.90;;;;;;5092327;28;20219;-75
2022/12/07 05:05:13;;;;;;;13.80;12.30;;;1.80;99.90;;;;;;5092331;28;20238;-78
2022/12/07 05:07:41;;;;;;;14.83;12.67;;;1.80;99.90;;;;;;5085218;28;20226;-80
2022/12/07 05:10:10;;;;;;;14.43;12.80;;;1.80;99.90;;;;;;5087365;28;20214;-79
2022/12/07 05:12:39;;;;;;;15.30;13.13;;;1.80;99.90;;;;;;5091662;28;20698;-80
2022/12/07 05:15:11;;;;;;;16.43;12.93;;;1.70;99.90;;;;;;5092506;28;20669;-77
2022/12/07 05:17:39;;;;;;;15.20;12.77;;;1.70;99.90;;;;;;5091466;28;20217;-78
2022/12/07 05:20:08;;;;;;;14.17;12.27;;;1.80;99.90;;;;;;5092602;28;20232;-81
2022/12/07 05:22:36;;;;;;;14.87;12.40;;;1.70;99.90;;;;;;5085358;28;20295;-76
2022/12/07 05:25:05;;;;;;;15.20;13.23;;;1.70;99.90;;;;;;5092268;28;20221;-80
2022/12/07 05:27:34;;;;;;;14.93;12.80;;;1.70;99.90;;;;;;5091486;28;20199;-78
2022/12/07 05:30:05;;;;;;;15.83;13.30;;;1.70;99.90;;;;;;5092047;28;20217;-80
2022/12/07 05:32:33;;;;;;;15.80;13.43;;;1.70;99.90;;;;;;5091051;28;20218;-80
2022/12/07 05:35:01;;;;;;;16.53;14.10;;;1.70;99.90;;;;;;5091858;28;20396;-74
2022/12/07 05:37:29;;;;;;;16.20;13.90;;;1.70;99.90;;;;;;5089685;28;20207;-79
2022/12/07 05:39:57;;;;;;;16.93;14.03;;;1.70;99.90;;;;;;5091569;28;20237;-79
2022/12/07 05:42:26;;;;;;;14.77;13.17;;;1.70;99.90;;;;;;5091194;28;20218;-80
2022/12/07 05:44:54;;;;;;;16.23;14.47;;;1.70;99.90;;;;;;5091695;28;20664;-77
2022/12/07 05:47:23;;;;;;;17.30;14.20;;;1.70;99.90;;;;;;5091819;28;20215;-78
2022/12/07 05:49:51;;;;;;;17.87;14.43;;;1.80;99.90;;;;;;5091768;28;20206;-77
2022/12/07 05:52:23;;;;;;;16.00;13.50;;;1.80;99.90;;;;;;5090720;28;20195;-80
2022/12/07 05:54:51;;;;;;;18.07;14.53;;;1.70;99.90;;;;;;5089994;28;20207;-80
2022/12/07 05:57:19;;;;;;;16.53;13.87;;;1.70;99.90;;;;;;5091521;28;20564;-79
2022/12/07 05:59:46;;;;;;;18.40;14.67;;;1.70;99.90;;;;;;5088231;28;20294;-79
2022/12/07 06:02:17;;;;;;;17.03;14.77;;;1.80;99.90;;;;;;5090728;28;20226;-78
2022/12/07 06:04:48;;;;;;;17.33;14.77;;;1.60;99.90;;;;;;5091801;28;20225;-81
2022/12/07 06:07:17;;;;;;;19.20;15.20;;;1.60;99.90;;;;;;5091286;28;20218;-80
2022/12/07 06:09:45;;;;;;;16.87;14.83;;;1.60;99.90;;;;;;5095010;28;20202;-81
2022/12/07 06:14:59;;;;;;;18.03;14.87;;;1.60;99.90;;;;;;5093482;28;20199;-80
2022/12/07 06:17:27;;;;;;;20.03;15.37;;;1.60;99.90;;;;;;5090098;28;20211;-79
2022/12/07 06:19:57;;;;;;;17.43;15.07;;;1.60;99.90;;;;;;5075446;28;20210;-80
2022/12/07 06:22:25;;;;;;;21.47;14.97;;;1.60;99.90;;;;;;5075340;28;20230;-79
2022/12/07 06:24:53;;;;;;;18.27;15.30;;;1.60;99.90;;;;;;5075159;28;20211;-79
2022/12/07 06:27:21;;;;;;;18.37;15.20;;;1.60;99.90;;;;;;5094438;28;20214;-80
2022/12/07 06:29:49;;;;;;;18.57;15.00;;;1.60;99.90;;;;;;5095215;28;20206;-74
2022/12/07 06:32:17;;;;;;;16.33;14.30;;;1.60;99.90;;;;;;5089982;28;20229;-80
2022/12/07 06:34:46;;;;;;;17.00;14.90;;;1.60;99.90;;;;;;5093226;28;20203;-80
2022/12/07 06:37:15;;;;;;;17.00;14.63;;;1.60;99.90;;;;;;5095489;28;20207;-74
2022/12/07 06:39:45;;;;;;;18.13;15.07;;;1.60;99.90;;;;;;5099370;28;20213;-78
2022/12/07 06:42:13;;;;;;;18.53;15.73;;;1.60;99.90;;;;;;5089575;28;20650;-76
2022/12/07 06:44:41;;;;;;;19.20;15.53;;;1.60;99.90;;;;;;5074790;28;20220;-78
2022/12/07 06:47:09;;;;;;;18.60;15.93;;;1.60;99.90;;;;;;5074470;28;20302;-78
2022/12/07 06:49:57;;;;;;;16.83;14.70;;;1.60;99.90;;;;;;5073962;28;20257;-77
2022/12/07 06:52:27;;;;;;;16.90;14.57;;;1.60;99.90;;;;;;5074038;28;20204;-79
2022/12/07 06:54:55;;;;;;;18.30;15.40;;;1.60;99.90;;;;;;5074630;28;20195;-79
2022/12/07 06:57:27;;;;;;;17.50;14.97;;;1.60;99.90;;;;;;5074746;28;20211;-75
2022/12/07 06:59:55;;;;;;;18.73;15.70;;;1.60;99.90;;;;;;5074900;28;20291;-79
2022/12/07 07:02:23;;;;;;;20.33;16.83;;;1.60;99.90;;;;;;5074227;28;20235;-78
2022/12/07 07:04:52;;;;;;;20.43;17.13;;;1.60;99.90;;;;;;5074571;28;20203;-78
2022/12/07 07:07:20;;;;;;;18.63;15.90;;;1.60;99.90;;;;;;5074721;28;20215;-77
2022/12/07 07:09:49;;;;;;;19.90;16.17;;;1.60;99.90;;;;;;5074591;28;20234;-76
2022/12/07 07:12:17;;;;;;;20.00;16.10;;;1.60;99.90;;;;;;5073753;28;20208;-79
2022/12/07 07:14:45;;;;;;;17.67;15.37;;;1.70;99.90;;;;;;5091979;28;20210;-76
2022/12/07 07:17:13;;;;;;;19.77;16.47;;;1.60;99.90;;;;;;5090697;28;20665;-78
2022/12/07 07:19:41;;;;;;;17.57;15.67;;;1.60;99.90;;;;;;5098569;28;20205;-79
2022/12/07 07:22:09;;;;;;;18.43;16.20;;;1.60;99.90;;;;;;5097256;28;20219;-80
2022/12/07 07:24:37;;;;;;;18.20;16.20;;;1.60;99.90;;;;;;5090324;28;20195;-79
2022/12/07 07:27:07;;;;;;;18.80;16.33;;;1.60;99.90;;;;;;5084311;28;20566;-78
2022/12/07 07:29:35;;;;;;;18.60;16.43;;;1.60;99.90;;;;;;5078311;28;20203;-77
2022/12/07 07:32:04;;;;;;;20.63;16.97;;;1.60;99.90;;;;;;5093689;28;20210;-77
2022/12/07 07:34:34;;;;;;;18.27;15.93;;;1.60;99.90;;;;;;5093986;28;20191;-78
2022/12/07 07:37:02;;;;;;;18.67;15.63;;;1.60;99.90;;;;;;5084333;28;20207;-78
2022/12/07 07:39:30;;;;;;;23.20;18.07;;;1.60;99.90;;;;;;5073756;28;20573;-79
2022/12/07 07:41:58;;;;;;;22.87;20.47;;;1.70;99.90;;;;;;5075271;28;20223;-79
2022/12/07 07:44:27;;;;;;;22.73;20.30;;;1.70;99.90;;;;;;5073202;28;20584;-78
2022/12/07 07:47:01;;;;;;;26.17;23.47;;;1.80;99.90;;;;;;5074539;28;20267;-78
2022/12/07 07:49:29;;;;;;;21.90;19.47;;;1.80;99.90;;;;;;5074245;28;20220;-77
2022/12/07 07:51:57;;;;;;;20.20;18.10;;;2.60;99.90;;;;;;5091574;28;20199;-77
2022/12/07 07:54:26;;;;;;;17.00;15.20;;;2.60;99.90;;;;;;5090665;28;20211;-79
2022/12/07 07:56:54;;;;;;;16.13;14.43;;;2.40;99.90;;;;;;5096464;28;20210;-76
2022/12/07 07:59:22;;;;;;;22.37;20.17;;;2.30;99.90;;;;;;5097670;28;20209;-76
2022/12/07 08:01:51;;;;;;;19.03;15.60;;;2.30;99.90;;;;;;5093373;28;20745;-79
2022/12/07 08:04:20;;;;;;;18.00;16.10;;;2.20;99.90;;;;;;5094936;28;20218;-79
2022/12/07 08:06:48;;;;;;;17.20;15.40;;;2.10;99.90;;;;;;5095117;28;20198;-75
2022/12/07 08:09:17;;;;;;;16.43;14.63;;;2.20;99.90;;;;;;5095068;28;20203;-77
2022/12/07 08:11:45;;;;;;;16.10;14.27;;;2.20;99.90;;;;;;5093356;28;20230;-78
2022/12/07 08:14:13;;;;;;;16.40;14.40;;;2.20;99.90;;;;;;5092813;28;20306;-75
2022/12/07 08:16:41;;;;;;;15.77;14.10;;;2.10;99.90;;;;;;5092422;28;20664;-75
2022/12/07 08:19:11;;;;;;;18.10;14.20;;;2.10;99.90;;;;;;5093920;28;20211;-75
2022/12/07 08:21:39;;;;;;;17.03;15.20;;;2.20;99.90;;;;;;5095498;28;20214;-77
2022/12/07 08:24:07;;;;;;;16.33;14.57;;;2.20;99.90;;;;;;5094065;28;20723;-80
2022/12/07 08:26:35;;;;;;;18.03;15.47;;;2.20;99.90;;;;;;5092436;28;20656;-80
2022/12/07 08:29:03;;;;;;;16.07;14.37;;;2.30;99.90;;;;;;5092595;28;20222;-74
2022/12/07 08:31:32;;;;;;;15.73;13.80;;;2.30;99.90;;;;;;5096031;28;20252;-74
2022/12/07 08:34:00;;;;;;;17.70;14.70;;;2.30;99.90;;;;;;5094902;28;20212;-74
2022/12/07 08:36:30;;;;;;;16.10;14.40;;;2.30;99.90;;;;;;5095107;28;20199;-75
2022/12/07 08:38:58;;;;;;;16.27;13.93;;;2.30;99.90;;;;;;5091001;28;20629;-75
2022/12/07 08:41:46;;;;;;;15.03;13.00;;;2.40;99.90;;;;;;5100294;28;20641;-75
2022/12/07 08:44:14;;;;;;;14.77;12.90;;;2.40;99.90;;;;;;5094560;28;20227;-77
2022/12/07 08:46:47;;;;;;;16.80;13.73;;;2.50;99.90;;;;;;5092691;28;20210;-75
2022/12/07 08:49:19;;;;;;;15.67;13.67;;;2.60;99.90;;;;;;5096988;28;20600;-78
2022/12/07 08:51:49;;;;;;;15.20;13.27;;;2.60;99.90;;;;;;5083396;28;20203;-78
2022/12/07 08:54:20;;;;;;;16.10;14.40;;;2.60;99.90;;;;;;5079993;28;20222;-78
2022/12/07 08:56:50;;;;;;;16.10;13.57;;;2.80;99.90;;;;;;5092679;28;20205;-77
2022/12/07 08:59:26;;;;;;;14.40;12.90;;;2.70;99.90;;;;;;5089845;28;20202;-78
2022/12/07 09:01:54;;;;;;;14.63;13.07;;;2.80;99.90;;;;;;5092280;28;20700;-77
2022/12/07 09:04:22;;;;;;;15.37;12.90;;;2.80;99.90;;;;;;5089031;28;20273;-78
2022/12/07 09:06:52;;;;;;;13.90;12.50;;;2.80;99.90;;;;;;5089207;28;20325;-78
2022/12/07 09:09:20;;;;;;;15.40;12.47;;;2.90;99.90;;;;;;5092243;28;20215;-77
2022/12/07 09:11:49;;;;;;;12.90;11.50;;;3.10;99.90;;;;;;5091990;28;20199;-78
2022/12/07 09:14:17;;;;;;;13.73;11.60;;;3.10;99.90;;;;;;5092394;28;20202;-78
2022/12/07 09:16:49;;;;;;;12.60;10.67;;;3.20;99.90;;;;;;5091777;28;20237;-77
2022/12/07 09:19:17;;;;;;;12.13;10.83;;;3.40;99.90;;;;;;5094317;28;20205;-77
2022/12/07 09:21:45;;;;;;;12.50;10.83;;;3.50;99.90;;;;;;5092162;28;20206;-78
2022/12/07 09:24:15;;;;;;;11.60;10.40;;;3.60;99.90;;;;;;5092175;28;20225;-78
2022/12/07 09:26:44;;;;;;;11.37;10.17;;;3.50;99.90;;;;;;5091399;28;20213;-78
2022/12/07 09:29:15;;;;;;;11.70;10.50;;;3.50;99.90;;;;;;5092326;28;20217;-78
2022/12/07 09:31:43;;;;;;;11.63;10.43;;;3.60;99.90;;;;;;5092212;28;20264;-78
2022/12/07 09:34:11;;;;;;;12.07;10.77;;;3.30;99.90;;;;;;5091806;28;20667;-79
2022/12/07 09:36:39;;;;;;;11.57;10.07;;;3.40;99.90;;;;;;5091573;28;20573;-76
2022/12/07 09:39:07;;;;;;;13.77;12.20;;;3.60;99.90;;;;;;5092587;28;20195;-78
2022/12/07 09:41:39;;;;;;;15.03;13.37;;;3.80;99.90;;;;;;5092828;28;20217;-79
2022/12/07 09:44:12;;;;;;;41.90;33.03;;;4.00;99.90;;;;;;5093732;28;20207;-79
2022/12/07 09:46:42;;;;;;;32.60;25.20;;;3.90;99.90;;;;;;5095790;28;20210;-77
2022/12/07 09:49:15;;;;;;;14.10;11.80;;;3.90;99.90;;;;;;5096314;28;20537;-75
2022/12/07 09:51:44;;;;;;;10.83;9.67;;;4.10;99.90;;;;;;5094240;28;20206;-77
2022/12/07 09:54:15;;;;;;;17.00;15.30;;;4.10;99.90;;;;;;5095437;28;20214;-77
2022/12/07 09:56:44;;;;;;;11.30;10.20;;;4.00;99.90;;;;;;5101338;28;20195;-77
2022/12/07 09:59:18;;;;;;;11.67;10.47;;;4.20;99.90;;;;;;5105826;28;20677;-78
2022/12/07 10:01:49;;;;;;;11.43;9.93;;;4.20;99.90;;;;;;5084641;28;20224;-76
2022/12/07 10:04:21;;;;;;;9.37;8.37;;;4.20;99.90;;;;;;5103606;28;20206;-79
2022/12/07 10:06:50;;;;;;;9.73;8.73;;;4.50;99.90;;;;;;5103337;28;20694;-79
2022/12/07 10:09:20;;;;;;;9.07;8.17;;;4.50;99.90;;;;;;5099374;28;20505;-79
2022/12/07 10:12:08;;;;;;;9.10;7.73;;;4.50;99.90;;;;;;5098577;28;20198;-80
2022/12/07 10:14:38;;;;;;;11.07;8.20;;;4.60;99.90;;;;;;5095143;28;20187;-73
2022/12/07 10:17:36;;;;;;;9.23;7.90;;;4.60;99.90;;;;;;5090225;28;20613;-74
2022/12/07 10:20:22;;;;;;;9.10;7.30;;;4.60;99.90;;;;;;5089590;28;20195;-74
2022/12/07 10:22:59;;;;;;;9.17;8.17;;;4.60;99.90;;;;;;5093267;28;20243;-77
2022/12/07 10:25:31;;;;;;;11.17;10.07;;;4.50;99.90;;;;;;5094322;28;20233;-74
2022/12/07 10:28:09;;;;;;;11.07;9.97;;;4.40;99.90;;;;;;5094697;28;20192;-79
2022/12/07 10:30:48;;;;;;;10.23;8.97;;;4.40;99.90;;;;;;5095322;28;20296;-78
2022/12/07 10:33:33;;;;;;;12.67;11.10;;;4.30;99.90;;;;;;5096132;28;20195;-77
2022/12/07 10:36:16;;;;;;;11.20;9.17;;;4.40;99.90;;;;;;5094457;28;20567;-78
2022/12/07 10:38:47;;;;;;;10.50;8.77;;;4.50;99.90;;;;;;5094507;28;20229;-77
2022/12/07 10:41:16;;;;;;;12.40;11.10;;;4.40;99.90;;;;;;5093677;28;20201;-77
2022/12/07 10:43:54;;;;;;;24.73;20.73;;;4.30;99.90;;;;;;5093028;28;20687;-77
2022/12/07 10:46:51;;;;;;;14.50;11.33;;;4.40;99.90;;;;;;5095687;28;20218;-78
2022/12/07 10:49:53;;;;;;;17.60;14.70;;;4.30;99.90;;;;;;5091606;28;20191;-78
2022/12/07 10:52:37;;;;;;;9.60;8.60;;;4.30;99.90;;;;;;5091857;28;20195;-77
2022/12/07 10:55:21;;;;;;;10.80;8.80;;;4.30;99.90;;;;;;5091875;28;20211;-79
2022/12/07 10:58:06;;;;;;;11.30;9.70;;;4.00;99.90;;;;;;5093325;28;20618;-79
2022/12/07 11:00:43;;;;;;;20.30;17.10;;;4.00;99.90;;;;;;5093573;28;20222;-79
2022/12/07 11:03:32;;;;;;;11.53;9.20;;;4.20;99.90;;;;;;5092944;28;20286;-77
2022/12/07 11:06:14;;;;;;;11.03;9.33;;;4.50;99.90;;;;;;5091980;28;20310;-79
2022/12/07 11:09:01;;;;;;;14.50;10.13;;;4.70;99.90;;;;;;5094571;28;20206;-77
2022/12/07 11:11:35;;;;;;;10.40;8.37;;;5.00;99.90;;;;;;5093907;28;20286;-78
2022/12/07 11:14:15;;;;;;;11.10;8.20;;;5.30;99.90;;;;;;5093550;28;20708;-78
2022/12/07 11:16:57;;;;;;;11.37;8.13;;;5.80;99.90;;;;;;5075611;28;20198;-78
2022/12/07 11:19:50;;;;;;;9.63;8.13;;;6.40;99.90;;;;;;5090358;28;20218;-79
2022/12/07 11:22:26;;;;;;;9.47;7.70;;;6.80;99.90;;;;;;5094425;28;20600;-78
2022/12/07 11:25:02;;;;;;;9.43;6.60;;;7.30;99.90;;;;;;5094705;28;20221;-76
2022/12/07 11:27:38;;;;;;;9.63;7.50;;;6.70;99.90;;;;;;5066808;28;20203;-74
2022/12/07 11:30:20;;;;;;;8.13;7.33;;;6.50;99.90;;;;;;5075808;28;20539;-76
2022/12/07 11:33:16;;;;;;;9.10;7.50;;;6.60;99.90;;;;;;5074631;28;20195;-78
2022/12/07 11:35:56;;;;;;;8.53;7.67;;;6.80;99.90;;;;;;5078608;28;20277;-78
2022/12/07 11:38:42;;;;;;;8.50;7.60;;;6.50;99.90;;;;;;5093439;28;20202;-76
2022/12/07 11:41:13;;;;;;;8.40;6.87;;;6.30;99.90;;;;;;5093689;28;20231;-77
2022/12/07 11:43:54;;;;;;;10.23;8.13;;;8.40;99.90;;;;;;5093659;28;20190;-75
2022/12/07 11:46:28;;;;;;;7.90;7.10;;;9.00;99.90;;;;;;5093800;28;20217;-77
2022/12/07 11:49:03;;;;;;;9.97;8.90;;;10.30;99.90;;;;;;5082268;28;20203;-79
2022/12/07 11:51:35;;;;;;;10.20;7.23;;;9.60;99.90;;;;;;5078573;28;20190;-74
2022/12/07 11:54:13;;;;;;;9.27;8.33;;;8.00;99.90;;;;;;5090985;28;20297;-79
2022/12/07 11:56:41;;;;;;;9.37;7.97;;;7.10;99.90;;;;;;5086524;28;20203;-80
2022/12/07 11:59:17;;;;;;;9.43;8.47;;;6.70;99.90;;;;;;5073547;28;20204;-80
2022/12/07 12:01:54;;;;;;;13.47;9.10;;;6.20;99.90;;;;;;5074055;28;20425;-78
2022/12/07 12:04:40;;;;;;;10.70;9.33;;;5.60;99.90;;;;;;5073119;28;20215;-76
2022/12/07 12:07:11;;;;;;;10.67;9.03;;;5.40;99.90;;;;;;5085465;28;20566;-77
2022/12/07 12:10:07;;;;;;;9.83;8.57;;;5.20;99.90;;;;;;5072826;28;20203;-77
2022/12/07 12:13:11;;;;;;;11.10;9.90;;;5.00;99.90;;;;;;5084388;28;20199;-78
2022/12/07 12:16:13;;;;;;;11.53;9.57;;;4.90;99.90;;;;;;5073355;28;20211;-77
2022/12/07 12:18:58;;;;;;;13.60;11.13;;;5.00;99.90;;;;;;5073451;28;20191;-77
2022/12/07 12:21:32;;;;;;;14.60;11.67;;;4.90;99.90;;;;;;5073046;28;20602;-79
2022/12/07 12:24:04;;;;;;;15.63;11.30;;;5.00;99.90;;;;;;5073075;28;20280;-79
2022/12/07 12:26:36;;;;;;;17.27;12.67;;;5.20;99.90;;;;;;5089561;28;20250;-75
2022/12/07 12:29:08;;;;;;;10.33;9.23;;;5.40;99.90;;;;;;5093579;28;20271;-76
2022/12/07 12:31:39;;;;;;;9.27;8.27;;;5.40;99.90;;;;;;5093452;28;20206;-73
2022/12/07 12:34:33;;;;;;;12.00;8.37;;;5.50;99.90;;;;;;5095658;28;20199;-76
2022/12/07 12:37:02;;;;;;;9.40;8.37;;;5.20;99.90;;;;;;5095791;28;20234;-75
2022/12/07 12:39:30;;;;;;;12.43;9.07;;;5.10;99.90;;;;;;5095047;28;20203;-76
2022/12/07 12:42:07;;;;;;;10.80;8.43;;;5.00;99.90;;;;;;5092845;28;20672;-78
2022/12/07 12:45:04;;;;;;;11.33;8.93;;;5.00;99.90;;;;;;5087885;28;20187;-78
2022/12/07 12:47:54;;;;;;;10.43;8.73;;;4.90;99.90;;;;;;5072778;28;20211;-74
2022/12/07 12:50:25;;;;;;;9.50;8.07;;;4.80;99.90;;;;;;5092098;28;20540;-80
2022/12/07 12:53:13;;;;;;;12.80;8.40;;;4.70;99.90;;;;;;5090545;28;20556;-77
2022/12/07 12:56:18;;;;;;;11.40;8.20;;;4.60;99.90;;;;;;5092261;28;20244;-80
2022/12/07 12:58:48;;;;;;;9.90;8.30;;;4.60;99.90;;;;;;5092713;28;20206;-76
2022/12/07 13:01:41;;;;;;;10.73;8.60;;;4.50;99.90;;;;;;5092983;28;20245;-78
2022/12/07 13:04:39;;;;;;;9.80;8.53;;;4.40;99.90;;;;;;5090304;28;20199;-78
2022/12/07 13:07:13;;;;;;;14.13;9.47;;;4.40;99.90;;;;;;5089513;28;20656;-80
2022/12/07 13:09:46;;;;;;;9.73;8.47;;;4.30;99.90;;;;;;5089859;28;20289;-78
2022/12/07 13:12:17;;;;;;;11.20;8.63;;;4.20;99.90;;;;;;5091141;28;20637;-80